Time;durP1;ratioP1;P1;durP2;ratioP2;P2;SDS_P1;SDS_P2;PMS_P1;PMS_P2;Temp;Humidity;BMP_temperature;BMP_pressure;BME280_temperature;BME280_humidity;BME280_pressure;Samples;Min_cycle;Max_cycle;Signal;HPM_P1;HPM_P2
2023/04/19 00:01:43;;;;;;;;;;;;;;;9.57;61.85;99713.12;105686;1261;73701;-75
2023/04/19 00:04:11;;;;;;;;;;;;;;;9.56;61.68;99709.85;105148;1261;60686;-74
2023/04/19 00:06:40;;;;;;;;;;;;;;;9.54;61.71;99712.56;105063;1261;59637;-73
2023/04/19 00:09:09;;;;;;;;;;;;;;;9.53;61.80;99707.29;105134;1261;73903;-74
2023/04/19 00:11:37;;;;;;;;;;;;;;;9.51;61.90;99708.48;105359;1256;69555;-73
2023/04/19 00:14:05;;;;;;;;;;;;;;;9.48;62.03;99712.52;105637;1259;71910;-73
2023/04/19 00:16:33;;;;;;;;;;;;;;;9.42;62.18;99710.21;105767;1261;59687;-73
2023/04/19 00:19:01;;;;;;;;;;;;;;;9.38;62.26;99708.91;105150;1261;59644;-74
2023/04/19 00:21:30;;;;;;;;;;;;;;;9.35;62.43;99707.45;105404;1261;73306;-73
2023/04/19 00:23:58;;;;;;;;;;;;;;;9.33;62.43;99704.77;105573;1260;66558;-73
2023/04/19 00:26:26;;;;;;;;;;;;;;;9.29;62.49;99702.13;105143;1258;74208;-72
2023/04/19 00:28:54;;;;;;;;;;;;;;;9.27;62.30;99703.38;105331;1257;59834;-74
2023/04/19 00:31:22;;;;;;;;;;;;;;;9.25;62.60;99701.96;105829;1260;60008;-73
2023/04/19 00:33:50;;;;;;;;;;;;;;;9.22;62.63;99699.19;105864;1257;72502;-75
2023/04/19 00:36:18;;;;;;;;;;;;;;;9.19;62.70;99694.23;105814;1259;67748;-74
2023/04/19 00:38:47;;;;;;;;;;;;;;;9.17;62.74;99694.55;105248;1259;74449;-74
2023/04/19 00:41:15;;;;;;;;;;;;;;;9.11;62.93;99690.21;105443;1261;60071;-74
2023/04/19 00:43:43;;;;;;;;;;;;;;;9.08;63.04;99690.47;105705;1259;59719;-74
2023/04/19 00:46:11;;;;;;;;;;;;;;;9.04;63.34;99693.73;105460;1259;73276;-73
2023/04/19 00:56:25;;;;;;;;;;;;;;;8.97;63.78;99684.96;102836;1292;599237;-74
2023/04/19 00:58:53;;;;;;;;;;;;;;;8.92;63.78;99684.22;105029;1267;59572;-72
2023/04/19 01:01:21;;;;;;;;;;;;;;;8.88;63.94;99678.61;105689;1256;60435;-77
2023/04/19 01:03:49;;;;;;;;;;;;;;;8.83;64.21;99669.55;105532;1257;70923;-74
2023/04/19 01:06:20;;;;;;;;;;;;;;;8.82;64.18;99671.20;105859;1259;68641;-74
2023/04/19 01:08:48;;;;;;;;;;;;;;;8.81;64.25;99667.21;105874;1259;73480;-73
2023/04/19 01:11:16;;;;;;;;;;;;;;;8.80;64.30;99665.90;105714;1256;59344;-74
2023/04/19 01:13:45;;;;;;;;;;;;;;;8.79;64.37;99663.95;106249;1251;60418;-73
2023/04/19 01:16:13;;;;;;;;;;;;;;;8.78;64.23;99660.88;106193;1251;71061;-75
2023/04/19 01:18:42;;;;;;;;;;;;;;;8.74;64.38;99662.68;106260;1256;69495;-74
2023/04/19 01:21:11;;;;;;;;;;;;;;;8.72;64.61;99660.83;106140;1253;74492;-72
2023/04/19 01:23:39;;;;;;;;;;;;;;;8.71;64.46;99661.88;106055;1256;60027;-74
2023/04/19 01:26:07;;;;;;;;;;;;;;;8.70;64.79;99659.83;106132;1253;61016;-72
2023/04/19 01:28:36;;;;;;;;;;;;;;;8.68;64.65;99657.27;106141;1252;74508;-73
2023/04/19 01:31:04;;;;;;;;;;;;;;;8.67;64.78;99660.15;106059;1253;67741;-74
2023/04/19 01:33:32;;;;;;;;;;;;;;;8.66;64.80;99656.95;106233;1253;72191;-74
2023/04/19 01:36:00;;;;;;;;;;;;;;;8.66;65.03;99658.02;106138;1256;59782;-73
2023/04/19 01:38:29;;;;;;;;;;;;;;;8.65;64.89;99656.27;106103;1252;60582;-73
2023/04/19 01:40:57;;;;;;;;;;;;;;;8.62;65.19;99652.02;106113;1256;72705;-75
2023/04/19 01:43:25;;;;;;;;;;;;;;;8.60;65.27;99652.28;106122;1251;70060;-75
2023/04/19 01:45:53;;;;;;;;;;;;;;;8.59;65.51;99651.83;106095;1256;73749;-74
2023/04/19 01:48:21;;;;;;;;;;;;;;;8.56;65.79;99647.75;106213;1251;60597;-74
2023/04/19 01:50:50;;;;;;;;;;;;;;;8.54;65.74;99648.83;106161;1252;59714;-77
2023/04/19 01:53:18;;;;;;;;;;;;;;;8.50;65.98;99647.24;106101;1253;74001;-76
2023/04/19 01:55:46;;;;;;;;;;;;;;;8.48;66.03;99645.87;106025;1257;69684;-75
2023/04/19 01:58:14;;;;;;;;;;;;;;;8.44;66.52;99645.13;106021;1257;74157;-76
2023/04/19 02:00:43;;;;;;;;;;;;;;;8.39;66.74;99643.16;105978;1256;59628;-77
2023/04/19 02:03:12;;;;;;;;;;;;;;;8.34;66.89;99643.20;106209;1251;61270;-77
2023/04/19 02:05:42;;;;;;;;;;;;;;;8.29;67.11;99644.08;106112;1251;73137;-76
2023/04/19 02:08:10;;;;;;;;;;;;;;;8.25;67.37;99640.38;106005;1256;68534;-76
2023/04/19 02:10:37;;;;;;;;;;;;;;;8.22;67.70;99639.02;105977;1253;74459;-75
2023/04/19 02:13:06;;;;;;;;;;;;;;;8.18;67.76;99634.97;106091;1253;60609;-75
2023/04/19 02:15:35;;;;;;;;;;;;;;;8.16;67.81;99634.13;106072;1253;59672;-76
2023/04/19 02:18:05;;;;;;;;;;;;;;;8.13;68.04;99626.89;106122;1252;74584;-74
2023/04/19 02:20:34;;;;;;;;;;;;;;;8.11;68.27;99630.04;106064;1251;67333;-74
2023/04/19 02:23:03;;;;;;;;;;;;;;;8.09;68.35;99627.98;106026;1253;74123;-75
2023/04/19 02:25:31;;;;;;;;;;;;;;;8.06;68.69;99629.30;106057;1253;61270;-73
2023/04/19 02:27:59;;;;;;;;;;;;;;;8.03;68.61;99627.67;106016;1256;60804;-73
2023/04/19 02:30:27;;;;;;;;;;;;;;;7.99;68.99;99626.14;105972;1257;74495;-73
2023/04/19 02:32:57;;;;;;;;;;;;;;;7.96;69.09;99631.23;106023;1255;68863;-74
2023/04/19 02:35:25;;;;;;;;;;;;;;;7.92;69.62;99630.96;105941;1251;74808;-74
2023/04/19 02:37:53;;;;;;;;;;;;;;;7.86;69.85;99631.69;105909;1253;59743;-73
2023/04/19 02:40:22;;;;;;;;;;;;;;;7.81;70.42;99634.64;105940;1252;59971;-73
2023/04/19 02:42:51;;;;;;;;;;;;;;;7.79;70.38;99634.25;106091;1256;73335;-74
2023/04/19 02:45:21;;;;;;;;;;;;;;;7.77;70.50;99633.79;106031;1253;67740;-74
2023/04/19 02:47:49;;;;;;;;;;;;;;;7.75;70.66;99636.05;105926;1253;72366;-74
2023/04/19 02:50:17;;;;;;;;;;;;;;;7.73;70.82;99634.13;105882;1256;59644;-73
2023/04/19 02:52:48;;;;;;;;;;;;;;;7.72;70.96;99636.14;105491;1253;59969;-72
2023/04/19 02:55:17;;;;;;;;;;;;;;;7.71;70.95;99639.38;105664;1254;73542;-73
2023/04/19 02:57:46;;;;;;;;;;;;;;;7.71;70.81;99637.65;106039;1253;68194;-72
2023/04/19 03:00:14;;;;;;;;;;;;;;;7.71;70.87;99640.52;106073;1251;74518;-72
2023/04/19 03:02:48;;;;;;;;;;;;;;;7.71;71.00;99645.96;106070;1252;60894;-71
2023/04/19 03:05:16;;;;;;;;;;;;;;;7.70;71.06;99644.70;105743;1252;61212;-73
2023/04/19 03:07:45;;;;;;;;;;;;;;;7.70;71.12;99640.27;106041;1253;74067;-73
2023/04/19 03:10:13;;;;;;;;;;;;;;;7.68;71.10;99640.97;105573;1256;67829;-73
2023/04/19 03:12:42;;;;;;;;;;;;;;;7.68;71.28;99639.77;105743;1253;72593;-74
2023/04/19 03:15:10;;;;;;;;;;;;;;;7.67;71.22;99637.11;105635;1253;61202;-74
2023/04/19 03:17:38;;;;;;;;;;;;;;;7.66;71.34;99639.00;105703;1254;61240;-75
2023/04/19 03:20:10;;;;;;;;;;;;;;;7.63;71.24;99634.48;106123;1254;72880;-72
2023/04/19 03:22:39;;;;;;;;;;;;;;;7.62;71.40;99636.45;105549;1253;67549;-74
2023/04/19 03:25:07;;;;;;;;;;;;;;;7.61;71.53;99636.46;106137;1253;72617;-74
2023/04/19 03:27:36;;;;;;;;;;;;;;;7.60;71.65;99630.63;105643;1256;61724;-74
2023/04/19 03:30:07;;;;;;;;;;;;;;;7.62;71.72;99628.46;105602;1253;61762;-76
2023/04/19 03:32:36;;;;;;;;;;;;;;;7.62;71.71;99626.42;105856;1255;72979;-74
2023/04/19 03:35:06;;;;;;;;;;;;;;;7.66;71.71;99625.71;105862;1256;67564;-73
2023/04/19 03:37:35;;;;;;;;;;;;;;;7.68;71.57;99626.39;105774;1252;71947;-75
2023/04/19 03:40:04;;;;;;;;;;;;;;;7.68;71.55;99625.05;105845;1256;59760;-75
2023/04/19 03:42:33;;;;;;;;;;;;;;;7.67;71.50;99623.89;106073;1254;62212;-72
2023/04/19 03:45:14;;;;;;;;;;;;;;;7.66;71.33;99615.49;105947;1253;73172;-74
2023/04/19 03:47:46;;;;;;;;;;;;;;;7.65;71.32;99620.65;106068;1256;68658;-72
2023/04/19 03:50:14;;;;;;;;;;;;;;;7.64;71.15;99618.23;106199;1253;71615;-74
2023/04/19 03:52:44;;;;;;;;;;;;;;;7.66;70.97;99619.77;106158;1252;59706;-76
2023/04/19 03:55:12;;;;;;;;;;;;;;;7.67;70.97;99622.85;106170;1252;60441;-72
2023/04/19 03:57:40;;;;;;;;;;;;;;;7.69;70.74;99622.31;106081;1255;74147;-73
2023/04/19 04:00:15;;;;;;;;;;;;;;;7.71;70.69;99622.90;105734;1253;67884;-75
2023/04/19 04:02:45;;;;;;;;;;;;;;;7.73;70.57;99618.55;105601;1253;74539;-73
2023/04/19 04:05:14;;;;;;;;;;;;;;;7.74;70.55;99620.16;105410;1253;59874;-71
2023/04/19 04:07:42;;;;;;;;;;;;;;;7.74;70.67;99615.84;106029;1251;60130;-72
2023/04/19 04:10:10;;;;;;;;;;;;;;;7.75;70.81;99621.64;105651;1255;75057;-71
2023/04/19 04:12:42;;;;;;;;;;;;;;;7.77;70.74;99619.92;105640;1251;68940;-72
2023/04/19 04:15:13;;;;;;;;;;;;;;;7.78;70.61;99619.18;105571;1253;74360;-71
2023/04/19 04:17:46;;;;;;;;;;;;;;;7.80;70.52;99619.35;105726;1256;60040;-72
2023/04/19 04:20:15;;;;;;;;;;;;;;;7.83;70.33;99618.66;105686;1253;60066;-73
2023/04/19 04:22:45;;;;;;;;;;;;;;;7.87;70.36;99615.32;105933;1256;72600;-72
2023/04/19 04:25:14;;;;;;;;;;;;;;;7.91;70.32;99618.04;106206;1251;67461;-69
2023/04/19 04:27:43;;;;;;;;;;;;;;;7.97;70.18;99617.70;105534;1258;73617;-72
2023/04/19 04:30:14;;;;;;;;;;;;;;;8.06;70.04;99613.86;105954;1253;62824;-78
2023/04/19 04:32:45;;;;;;;;;;;;;;;8.14;69.68;99610.39;105542;1253;61015;-74
2023/04/19 04:35:14;;;;;;;;;;;;;;;8.25;69.69;99611.48;105868;1253;74309;-74
2023/04/19 04:37:47;;;;;;;;;;;;;;;8.36;69.05;99611.52;106148;1256;67881;-73
2023/04/19 04:40:15;;;;;;;;;;;;;;;8.43;68.84;99616.54;105471;1253;73287;-73
2023/04/19 04:42:44;;;;;;;;;;;;;;;8.49;68.75;99614.73;105905;1259;60141;-72
2023/04/19 04:45:12;;;;;;;;;;;;;;;8.55;68.67;99615.49;106106;1256;59874;-71
2023/04/19 04:47:42;;;;;;;;;;;;;;;8.62;68.84;99621.64;105778;1254;72590;-72
2023/04/19 04:50:10;;;;;;;;;;;;;;;8.69;68.55;99621.63;105599;1253;67027;-73
2023/04/19 04:52:39;;;;;;;;;;;;;;;8.77;68.63;99619.73;105815;1256;73635;-73
2023/04/19 04:55:12;;;;;;;;;;;;;;;8.85;67.78;99624.66;105832;1256;60918;-70
2023/04/19 04:57:43;;;;;;;;;;;;;;;8.93;67.27;99623.56;106039;1253;61917;-73
2023/04/19 05:00:21;;;;;;;;;;;;;;;9.02;66.36;99625.77;106076;1254;74716;-72
2023/04/19 05:02:56;;;;;;;;;;;;;;;9.10;66.08;99622.81;105544;1258;67830;-73
2023/04/19 05:05:25;;;;;;;;;;;;;;;9.17;65.76;99624.33;105548;1253;72348;-72
2023/04/19 05:07:53;;;;;;;;;;;;;;;9.26;65.79;99623.92;105621;1253;61153;-72
2023/04/19 05:10:21;;;;;;;;;;;;;;;9.33;65.31;99623.67;105753;1254;61029;-72
2023/04/19 05:12:49;;;;;;;;;;;;;;;9.40;64.77;99626.27;105858;1250;75696;-73
2023/04/19 05:15:17;;;;;;;;;;;;;;;9.46;64.60;99624.85;105642;1253;67973;-71
2023/04/19 05:17:49;;;;;;;;;;;;;;;9.52;64.22;99626.09;105543;1256;73521;-72
2023/04/19 05:20:18;;;;;;;;;;;;;;;9.57;63.84;99625.42;105581;1253;60377;-72
2023/04/19 05:22:47;;;;;;;;;;;;;;;9.63;63.60;99626.85;105690;1253;60498;-71
2023/04/19 05:25:16;;;;;;;;;;;;;;;9.68;63.50;99627.52;105702;1256;75001;-70
2023/04/19 05:27:45;;;;;;;;;;;;;;;9.73;63.55;99626.84;105707;1253;69518;-72
2023/04/19 05:30:13;;;;;;;;;;;;;;;9.79;63.66;99630.33;106149;1255;72887;-73
2023/04/19 05:32:43;;;;;;;;;;;;;;;9.85;63.63;99633.63;105433;1253;61526;-73
2023/04/19 05:35:14;;;;;;;;;;;;;;;9.91;63.36;99634.84;105688;1253;61194;-72
2023/04/19 05:37:43;;;;;;;;;;;;;;;9.96;63.30;99643.30;105703;1251;73963;-71
2023/04/19 05:40:12;;;;;;;;;;;;;;;9.99;63.37;99641.34;105428;1253;68731;-72
2023/04/19 05:42:42;;;;;;;;;;;;;;;10.01;63.45;99637.63;105842;1251;73826;-74
2023/04/19 05:45:10;;;;;;;;;;;;;;;10.04;63.75;99634.00;105770;1256;60540;-72
2023/04/19 05:47:39;;;;;;;;;;;;;;;10.04;64.10;99634.28;105629;1251;60476;-69
2023/04/19 05:50:27;;;;;;;;;;;;;;;10.05;64.44;99635.05;105569;1256;75080;-75
2023/04/19 05:53:19;;;;;;;;;;;;;;;10.05;64.97;99638.53;105934;1254;70025;-69
2023/04/19 05:55:49;;;;;;;;;;;;;;;10.07;65.33;99641.90;105645;1255;73574;-69
2023/04/19 05:58:18;;;;;;;;;;;;;;;10.12;65.59;99641.64;105647;1253;60439;-68
2023/04/19 06:00:47;;;;;;;;;;;;;;;10.19;65.61;99640.69;105768;1254;60404;-70
2023/04/19 06:03:16;;;;;;;;;;;;;;;10.27;65.88;99638.95;105584;1257;75245;-72
2023/04/19 06:05:44;;;;;;;;;;;;;;;10.35;65.81;99633.76;105333;1256;67998;-72
2023/04/19 06:08:15;;;;;;;;;;;;;;;10.44;65.63;99631.13;105513;1256;72525;-71
2023/04/19 06:10:46;;;;;;;;;;;;;;;10.56;65.03;99634.60;105600;1252;60839;-72
2023/04/19 06:13:25;;;;;;;;;;;;;;;10.69;64.26;99634.48;105540;1252;60543;-71
2023/04/19 06:15:54;;;;;;;;;;;;;;;10.81;63.95;99633.23;105711;1256;74155;-70
2023/04/19 06:18:22;;;;;;;;;;;;;;;10.92;63.60;99628.70;105667;1256;67133;-69
2023/04/19 06:20:52;;;;;;;;;;;;;;;11.01;62.84;99623.46;105683;1251;73757;-71
2023/04/19 06:23:20;;;;;;;;;;;;;;;11.10;63.05;99618.93;105491;1252;60623;-70
2023/04/19 06:25:48;;;;;;;;;;;;;;;11.18;62.63;99621.77;105797;1253;60461;-70
2023/04/19 06:28:16;;;;;;;;;;;;;;;11.27;62.50;99622.16;105749;1256;74666;-70
2023/04/19 06:30:44;;;;;;;;;;;;;;;11.35;62.27;99625.56;105626;1252;67773;-70
2023/04/19 06:33:12;;;;;;;;;;;;;;;11.42;62.11;99624.98;105677;1256;72454;-70
2023/04/19 06:35:40;;;;;;;;;;;;;;;11.48;61.64;99625.73;105681;1253;61190;-72
2023/04/19 06:38:08;;;;;;;;;;;;;;;11.53;61.36;99622.70;105672;1254;60499;-70
2023/04/19 06:40:37;;;;;;;;;;;;;;;11.58;61.37;99621.61;105723;1256;75010;-70
2023/04/19 06:43:05;;;;;;;;;;;;;;;11.64;61.22;99612.44;105657;1254;67951;-71
2023/04/19 06:45:35;;;;;;;;;;;;;;;11.68;60.41;99613.83;105792;1254;72161;-69
2023/04/19 06:48:03;;;;;;;;;;;;;;;11.71;60.45;99615.45;105856;1254;60397;-73
2023/04/19 06:50:31;;;;;;;;;;;;;;;11.75;60.46;99613.58;105744;1254;60593;-70
2023/04/19 06:52:59;;;;;;;;;;;;;;;11.81;60.34;99617.82;105765;1256;74293;-70
2023/04/19 06:55:34;;;;;;;;;;;;;;;11.89;60.48;99616.09;105573;1253;67657;-71
2023/04/19 06:58:02;;;;;;;;;;;;;;;11.95;60.27;99609.34;105674;1255;74007;-71
2023/04/19 07:00:31;;;;;;;;;;;;;;;12.01;60.13;99613.85;105674;1254;60401;-73
2023/04/19 07:03:00;;;;;;;;;;;;;;;12.09;60.52;99615.89;105711;1253;60357;-73
2023/04/19 07:05:30;;;;;;;;;;;;;;;12.17;60.33;99613.12;105750;1254;76721;-72
2023/04/19 07:07:58;;;;;;;;;;;;;;;12.23;60.34;99612.89;105665;1252;67809;-73
2023/04/19 07:10:26;;;;;;;;;;;;;;;12.29;60.27;99610.64;105680;1255;74032;-74
2023/04/19 07:12:54;;;;;;;;;;;;;;;12.35;60.81;99612.50;105609;1254;60463;-75
2023/04/19 07:15:22;;;;;;;;;;;;;;;12.41;61.33;99608.96;105996;1252;60424;-76
2023/04/19 07:17:50;;;;;;;;;;;;;;;12.46;60.99;99612.28;106049;1257;75521;-74
2023/04/19 07:20:19;;;;;;;;;;;;;;;12.51;60.72;99613.80;106045;1254;67703;-74
2023/04/19 07:22:47;;;;;;;;;;;;;;;12.57;61.06;99614.05;106112;1255;72640;-72
2023/04/19 07:25:15;;;;;;;;;;;;;;;12.64;60.71;99611.33;105616;1253;61316;-74
2023/04/19 07:27:43;;;;;;;;;;;;;;;12.71;60.52;99615.54;106090;1256;60454;-73
2023/04/19 07:30:11;;;;;;;;;;;;;;;12.78;60.80;99615.36;105619;1259;74460;-73
2023/04/19 07:32:39;;;;;;;;;;;;;;;12.87;60.12;99619.91;106019;1253;71847;-73
2023/04/19 07:35:08;;;;;;;;;;;;;;;12.95;59.65;99616.63;105588;1251;73792;-71
2023/04/19 07:37:36;;;;;;;;;;;;;;;13.00;59.41;99611.84;105661;1253;61472;-73
2023/04/19 07:40:05;;;;;;;;;;;;;;;13.08;59.37;99610.35;106225;1254;60847;-73
2023/04/19 07:42:33;;;;;;;;;;;;;;;13.17;58.67;99613.14;106031;1258;74833;-75
2023/04/19 07:45:01;;;;;;;;;;;;;;;13.24;58.51;99613.85;106142;1254;66706;-73
2023/04/19 07:47:30;;;;;;;;;;;;;;;13.32;58.41;99613.09;105951;1251;73382;-73
2023/04/19 07:49:58;;;;;;;;;;;;;;;13.42;58.33;99612.98;105977;1257;60364;-72
2023/04/19 07:52:26;;;;;;;;;;;;;;;13.52;58.32;99605.96;105814;1253;61758;-73
2023/04/19 07:54:54;;;;;;;;;;;;;;;13.63;58.15;99606.17;106143;1250;73890;-73
2023/04/19 07:57:22;;;;;;;;;;;;;;;13.72;57.73;99605.19;106190;1252;67675;-72
2023/04/19 07:59:50;;;;;;;;;;;;;;;13.81;57.95;99605.45;105454;1257;73543;-70
2023/04/19 08:02:18;;;;;;;;;;;;;;;13.89;57.77;99605.92;105885;1251;61255;-74
2023/04/19 08:04:48;;;;;;;;;;;;;;;13.97;56.99;99599.10;106233;1254;60379;-71
2023/04/19 08:07:17;;;;;;;;;;;;;;;14.02;56.41;99597.83;106113;1256;73616;-73
2023/04/19 08:09:45;;;;;;;;;;;;;;;14.08;56.05;99600.36;106063;1255;68980;-71
2023/04/19 08:12:13;;;;;;;;;;;;;;;14.15;56.30;99593.30;105644;1256;72776;-71
2023/04/19 08:15:00;;;;;;;;;;;;;;;14.23;55.82;99594.73;105491;1253;61331;-71
2023/04/19 08:17:47;;;;;;;;;;;;;;;14.32;55.72;99594.70;105619;1254;60407;-71
2023/04/19 08:20:16;;;;;;;;;;;;;;;14.39;54.95;99588.01;105715;1256;73927;-76
2023/04/19 08:22:44;;;;;;;;;;;;;;;14.47;55.13;99590.13;105551;1257;67236;-73
2023/04/19 08:25:14;;;;;;;;;;;;;;;14.54;54.87;99588.04;105580;1258;73716;-72
2023/04/19 08:27:42;;;;;;;;;;;;;;;14.60;54.60;99590.17;105753;1256;60912;-73
2023/04/19 08:30:11;;;;;;;;;;;;;;;14.65;54.65;99587.34;105624;1253;60467;-76
2023/04/19 08:32:39;;;;;;;;;;;;;;;14.70;54.27;99589.48;106035;1256;74826;-75
2023/04/19 08:35:07;;;;;;;;;;;;;;;14.75;53.62;99591.45;105498;1256;68548;-74
2023/04/19 08:37:36;;;;;;;;;;;;;;;14.77;53.01;99586.45;105956;1255;72704;-74
2023/04/19 08:40:05;;;;;;;;;;;;;;;14.80;52.84;99588.27;106104;1256;61310;-76
2023/04/19 08:42:34;;;;;;;;;;;;;;;14.85;52.62;99585.59;105888;1255;60579;-76
2023/04/19 08:45:05;;;;;;;;;;;;;;;14.92;52.49;99583.27;106202;1254;74063;-76
2023/04/19 08:47:36;;;;;;;;;;;;;;;14.99;53.15;99579.34;105862;1254;69575;-74
2023/04/19 08:50:20;;;;;;;;;;;;;;;15.06;53.40;99580.38;105725;1256;73218;-78
2023/04/19 08:53:02;;;;;;;;;;;;;;;15.08;52.41;99580.61;105793;1259;60477;-74
2023/04/19 08:55:34;;;;;;;;;;;;;;;15.07;52.65;99583.66;105757;1260;60818;-76
2023/04/19 08:58:02;;;;;;;;;;;;;;;15.10;53.13;99595.08;105755;1253;75500;-73
2023/04/19 09:00:36;;;;;;;;;;;;;;;15.19;52.99;99593.98;105317;1259;67562;-73
2023/04/19 09:03:06;;;;;;;;;;;;;;;15.28;53.01;99592.66;105338;1261;74200;-74
2023/04/19 09:05:37;;;;;;;;;;;;;;;15.36;52.86;99582.69;105219;1253;62251;-75
2023/04/19 09:08:26;;;;;;;;;;;;;;;15.42;52.18;99579.00;105886;1259;60616;-75
2023/04/19 09:10:58;;;;;;;;;;;;;;;15.46;51.53;99587.70;105374;1259;73545;-75
2023/04/19 09:13:28;;;;;;;;;;;;;;;15.47;51.37;99585.68;105772;1254;69438;-72
2023/04/19 09:15:56;;;;;;;;;;;;;;;15.49;50.94;99584.90;105380;1260;73134;-73
2023/04/19 09:18:25;;;;;;;;;;;;;;;15.51;51.29;99573.51;105808;1261;60453;-73
2023/04/19 09:20:59;;;;;;;;;;;;;;;15.58;50.60;99570.82;105729;1258;61744;-75
2023/04/19 09:23:29;;;;;;;;;;;;;;;15.63;49.69;99572.33;105479;1258;75048;-73
2023/04/19 09:26:03;;;;;;;;;;;;;;;15.63;50.00;99569.94;105368;1260;68614;-75
2023/04/19 09:28:57;;;;;;;;;;;;;;;15.64;50.38;99575.45;105371;1260;73771;-80
2023/04/19 09:31:26;;;;;;;;;;;;;;;15.68;50.63;99577.15;105582;1254;61085;-75
2023/04/19 09:34:15;;;;;;;;;;;;;;;15.70;50.20;99575.80;105687;1259;60681;-77
2023/04/19 09:36:43;;;;;;;;;;;;;;;15.70;50.51;99576.38;105613;1259;75519;-73
2023/04/19 09:39:11;;;;;;;;;;;;;;;15.78;50.27;99575.11;105252;1258;67944;-74
2023/04/19 09:41:51;;;;;;;;;;;;;;;15.87;48.78;99583.54;105134;1260;74715;-75
2023/04/19 09:44:19;;;;;;;;;;;;;;;15.95;48.09;99586.23;105055;1261;60971;-74
2023/04/19 09:47:21;;;;;;;;;;;;;;;16.01;47.73;99582.36;105644;1260;60839;-73
2023/04/19 09:50:02;;;;;;;;;;;;;;;16.08;47.64;99586.02;105858;1254;74392;-73
2023/04/19 09:52:49;;;;;;;;;;;;;;;16.12;46.85;99585.27;105931;1263;69084;-76
2023/04/19 09:55:17;;;;;;;;;;;;;;;16.16;47.10;99577.91;105787;1259;70349;-69
2023/04/19 09:57:48;;;;;;;;;;;;;;;16.21;47.14;99578.39;105250;1258;61330;-70
2023/04/19 10:00:17;;;;;;;;;;;;;;;16.27;47.32;99574.46;105574;1259;60760;-71
2023/04/19 10:02:50;;;;;;;;;;;;;;;16.34;47.10;99575.91;105404;1260;74043;-69
2023/04/19 10:05:20;;;;;;;;;;;;;;;16.34;47.39;99573.95;105477;1266;69325;-72
2023/04/19 10:07:49;;;;;;;;;;;;;;;16.32;47.43;99576.84;105258;1258;73399;-68
2023/04/19 10:10:17;;;;;;;;;;;;;;;16.28;47.42;99573.75;105227;1259;60775;-70
2023/04/19 10:12:50;;;;;;;;;;;;;;;16.26;47.48;99575.89;105243;1257;60497;-71
2023/04/19 10:15:21;;;;;;;;;;;;;;;16.23;47.96;99575.70;105835;1259;73671;-70
2023/04/19 10:17:49;;;;;;;;;;;;;;;16.20;48.51;99577.60;105441;1259;69164;-72
2023/04/19 10:20:26;;;;;;;;;;;;;;;16.22;48.95;99580.00;105342;1257;74274;-70
2023/04/19 10:22:55;;;;;;;;;;;;;;;16.30;49.11;99581.59;105466;1260;61317;-72
2023/04/19 10:25:29;;;;;;;;;;;;;;;16.34;48.98;99578.56;105503;1257;61055;-71
2023/04/19 10:27:57;;;;;;;;;;;;;;;16.39;48.36;99576.38;105415;1262;75941;-70
2023/04/19 10:30:26;;;;;;;;;;;;;;;16.40;48.45;99577.29;105464;1260;69241;-72
2023/04/19 10:32:55;;;;;;;;;;;;;;;16.42;48.21;99575.31;105146;1260;73971;-71
2023/04/19 10:35:30;;;;;;;;;;;;;;;16.42;48.07;99575.47;105614;1257;60613;-73
2023/04/19 10:38:08;;;;;;;;;;;;;;;16.42;48.39;99563.73;105365;1262;60468;-71
2023/04/19 10:40:56;;;;;;;;;;;;;;;16.45;48.26;99572.11;105748;1260;73562;-72
2023/04/19 10:43:32;;;;;;;;;;;;;;;16.44;48.59;99579.48;105871;1258;68512;-77
2023/04/19 10:46:07;;;;;;;;;;;;;;;16.50;48.48;99586.77;105870;1258;73007;-80
2023/04/19 10:48:41;;;;;;;;;;;;;;;16.54;48.36;99587.27;105721;1260;60382;-72
2023/04/19 10:51:10;;;;;;;;;;;;;;;16.56;48.55;99594.53;105881;1257;60773;-73
2023/04/19 10:53:45;;;;;;;;;;;;;;;16.63;48.72;99593.27;105795;1260;75101;-77
2023/04/19 10:56:13;;;;;;;;;;;;;;;16.70;48.98;99596.54;105791;1267;68596;-76
2023/04/19 10:59:00;;;;;;;;;;;;;;;16.80;47.70;99603.19;105738;1257;73723;-78
2023/04/19 11:01:42;;;;;;;;;;;;;;;16.85;47.82;99604.91;105358;1255;61671;-77
2023/04/19 11:04:17;;;;;;;;;;;;;;;16.96;48.21;99603.83;105817;1254;60568;-74
2023/04/19 11:06:52;;;;;;;;;;;;;;;17.07;47.99;99608.83;105885;1259;74619;-75
2023/04/19 11:09:27;;;;;;;;;;;;;;;17.13;48.08;99606.45;105867;1254;68096;-77
2023/04/19 11:12:00;;;;;;;;;;;;;;;17.21;48.30;99602.27;105824;1267;71145;-76
2023/04/19 11:14:33;;;;;;;;;;;;;;;17.25;48.08;99600.02;105844;1255;61839;-74
2023/04/19 11:17:31;;;;;;;;;;;;;;;17.29;48.21;99602.39;105851;1264;60455;-76
2023/04/19 11:20:01;;;;;;;;;;;;;;;17.39;48.00;99601.71;106000;1257;74423;-70
2023/04/19 11:22:36;;;;;;;;;;;;;;;17.43;48.02;99604.30;105808;1260;69509;-81
2023/04/19 11:25:04;;;;;;;;;;;;;;;17.38;48.33;99603.35;105947;1257;74243;-76
2023/04/19 11:27:33;;;;;;;;;;;;;;;17.27;48.28;99607.75;105930;1258;60894;-78
2023/04/19 11:30:06;;;;;;;;;;;;;;;17.16;48.37;99604.77;105667;1257;61460;-77
2023/04/19 11:32:34;;;;;;;;;;;;;;;17.16;48.97;99606.24;105857;1258;75252;-80
2023/04/19 11:35:05;;;;;;;;;;;;;;;17.20;49.09;99600.10;105950;1257;69129;-77
2023/04/19 11:37:34;;;;;;;;;;;;;;;17.23;49.27;99601.84;105874;1259;73091;-76
2023/04/19 11:40:05;;;;;;;;;;;;;;;17.21;49.18;99599.72;105400;1260;60475;-77
2023/04/19 11:42:34;;;;;;;;;;;;;;;17.19;49.40;99601.38;105570;1257;60506;-75
2023/04/19 11:45:03;;;;;;;;;;;;;;;17.04;49.67;99608.33;105406;1259;75350;-73
2023/04/19 11:47:35;;;;;;;;;;;;;;;16.94;50.24;99601.36;105512;1257;68726;-79
2023/04/19 11:50:22;;;;;;;;;;;;;;;16.89;50.86;99598.73;105369;1264;73191;-79
2023/04/19 11:52:53;;;;;;;;;;;;;;;16.76;51.42;99602.31;105329;1258;60457;-77
2023/04/19 11:55:21;;;;;;;;;;;;;;;16.65;51.83;99597.58;105744;1256;60526;-78
2023/04/19 11:57:49;;;;;;;;;;;;;;;16.63;51.87;99602.77;105874;1257;74228;-78
2023/04/19 12:00:25;;;;;;;;;;;;;;;16.61;52.04;99604.02;105596;1258;68377;-75
2023/04/19 12:02:53;;;;;;;;;;;;;;;16.56;52.60;99602.77;105408;1260;74381;-77
2023/04/19 12:05:22;;;;;;;;;;;;;;;16.46;53.09;99606.95;105296;1260;61058;-80
2023/04/19 12:08:04;;;;;;;;;;;;;;;16.37;53.79;99605.45;105857;1257;60810;-77
2023/04/19 12:10:32;;;;;;;;;;;;;;;16.30;54.02;99607.88;105484;1259;73415;-76
2023/04/19 12:13:00;;;;;;;;;;;;;;;16.25;54.23;99604.61;105902;1258;69239;-74
2023/04/19 12:15:44;;;;;;;;;;;;;;;16.18;54.92;99609.42;105437;1257;72114;-78
2023/04/19 12:18:12;;;;;;;;;;;;;;;16.10;55.33;99611.28;105875;1260;60672;-75
2023/04/19 12:20:45;;;;;;;;;;;;;;;16.02;56.40;99609.90;105909;1257;60586;-75
2023/04/19 12:23:14;;;;;;;;;;;;;;;15.93;57.52;99609.73;105590;1255;75526;-75
2023/04/19 12:25:44;;;;;;;;;;;;;;;15.86;57.94;99612.35;105452;1258;68861;-73
2023/04/19 12:28:14;;;;;;;;;;;;;;;15.79;58.09;99602.88;105382;1260;74468;-73
2023/04/19 12:30:42;;;;;;;;;;;;;;;15.70;58.83;99606.59;105784;1258;60579;-75
2023/04/19 12:33:11;;;;;;;;;;;;;;;15.64;59.23;99607.29;105442;1258;60547;-75
2023/04/19 12:35:39;;;;;;;;;;;;;;;15.61;59.51;99609.00;105825;1260;74033;-74
2023/04/19 12:38:08;;;;;;;;;;;;;;;15.58;59.79;99607.23;105808;1260;69760;-76
2023/04/19 12:40:36;;;;;;;;;;;;;;;15.57;60.14;99617.08;105406;1258;73500;-74
2023/04/19 12:43:05;;;;;;;;;;;;;;;15.56;60.22;99619.95;105347;1259;61090;-73
2023/04/19 12:45:33;;;;;;;;;;;;;;;15.56;60.39;99623.26;105508;1257;60675;-74
2023/04/19 12:48:02;;;;;;;;;;;;;;;15.55;60.28;99625.76;105303;1260;74628;-74
2023/04/19 12:50:30;;;;;;;;;;;;;;;15.50;60.12;99627.80;105767;1256;69752;-73
2023/04/19 12:52:58;;;;;;;;;;;;;;;15.45;59.75;99627.43;105209;1260;74219;-75
2023/04/19 12:55:26;;;;;;;;;;;;;;;15.43;59.55;99626.96;105525;1261;61895;-74
2023/04/19 12:57:54;;;;;;;;;;;;;;;15.38;59.64;99626.46;105547;1257;61128;-76
2023/04/19 13:00:23;;;;;;;;;;;;;;;15.34;59.48;99630.14;105860;1258;73389;-75
2023/04/19 13:02:51;;;;;;;;;;;;;;;15.31;59.81;99628.02;105772;1260;68418;-75
2023/04/19 13:05:20;;;;;;;;;;;;;;;15.31;60.11;99629.71;105281;1260;73260;-76